Silves — CQMG — position and weather

sailwx.info

Track history (hours):
 
Tides and Currents Weather Stations Pressure Air Temp Water Temp Dewpoint Dewpoint Depression Visibility Wind Speed Wind Dir Waves Ship Positions

Silves

Last reported at 2018-Jan-12 15:00 UTC. Time now 2018-Jan-18 07:51 UTC.
Position N 43°56' E 008°44'.

Length 90 m; draft 4.3 m.

Type: Cargo ship. MMSI: 255803360.

Date/timePositionNaut miles runAvg speedWind from/ knotsBaromVisibWave heightAir tempDewpointWater temp
2018-Jan-12 15:00N 43°56' E 008°44'2 3.3
2018-Jan-12 14:31N 43°55' E 008°42'1 1.6
2018-Jan-12 14:01N 43°54' E 008°42'3 5.4
2018-Jan-12 13:30N 43°56' E 008°44'3 5.2
2018-Jan-12 13:00N 43°58' E 008°47'3 5.2
2018-Jan-12 12:30N 43°60' E 008°49'3 4.9
2018-Jan-12 12:00N 44°02' E 008°47'3 5.3
2018-Jan-12 11:27N 44°04' E 008°45'2 5.4
2018-Jan-12 11:00N 44°06' E 008°43'3 5.2
2018-Jan-12 10:26N 44°08' E 008°40'2 5.1
2018-Jan-12 10:00N 44°10' E 008°39'3 5.4
2018-Jan-12 09:31N 44°13' E 008°37'3 5.5
2018-Jan-12 09:00N 44°15' E 008°35'3 5.8
2018-Jan-12 08:30N 44°17' E 008°33'2 4.6
2018-Jan-12 08:00N 44°19' E 008°30'0 0.0
2018-Jan-12 07:30N 44°19' E 008°30'0 0.0
2018-Jan-12 07:00N 44°19' E 008°30'0 0.0
2018-Jan-12 06:30N 44°19' E 008°30'0 0.0
2018-Jan-12 06:00N 44°19' E 008°30'0 0.0
2018-Jan-12 05:30N 44°19' E 008°30'0 0.0
2018-Jan-12 05:00N 44°19' E 008°30'0 0.0
2018-Jan-12 04:27N 44°19' E 008°30'0 0.0
2018-Jan-12 04:00N 44°19' E 008°30'0 0.0
2018-Jan-12 03:27N 44°19' E 008°30'0 0.0
2018-Jan-12 02:51N 44°19' E 008°30'0 0.0
2018-Jan-12 02:27N 44°19' E 008°30'0 0.0
2018-Jan-12 01:57N 44°19' E 008°30'0 0.0
2018-Jan-12 01:30N 44°19' E 008°30'0 0.0
2018-Jan-12 00:57N 44°19' E 008°30'0 0.0
2018-Jan-12 00:27N 44°19' E 008°30'0 0.0
2018-Jan-12 00:00N 44°19' E 008°30'0 0.0
2018-Jan-11 23:30N 44°19' E 008°30'0 0.0
2018-Jan-11 23:00N 44°19' E 008°30'0 0.0
2018-Jan-11 22:27N 44°19' E 008°30'0 0.0
2018-Jan-11 21:57N 44°19' E 008°30'0 0.0
2018-Jan-11 21:30N 44°19' E 008°30'0 0.0
2018-Jan-11 20:57N 44°19' E 008°30'0 0.0
2018-Jan-11 20:30N 44°19' E 008°30'0 0.0
2018-Jan-11 20:00N 44°19' E 008°30'0 0.0
2018-Jan-11 19:30N 44°19' E 008°30'0 0.0
2018-Jan-11 19:00N 44°19' E 008°30'0 0.0
2018-Jan-11 18:30N 44°19' E 008°30'0 0.0
2018-Jan-11 18:00N 44°19' E 008°30'0 0.0
2018-Jan-11 17:27N 44°19' E 008°30'0 0.0
2018-Jan-11 16:45N 44°19' E 008°30'0 0.0
2018-Jan-11 16:30N 44°19' E 008°30'0 0.0
2018-Jan-11 16:00N 44°19' E 008°30'0 0.0
2018-Jan-11 15:27N 44°19' E 008°30'0 0.0
2018-Jan-11 15:00N 44°19' E 008°30'0 0.0
2018-Jan-11 14:30N 44°19' E 008°30'0 0.0
2018-Jan-11 13:51N 44°19' E 008°30'0 0.0
2018-Jan-11 13:27N 44°19' E 008°30'0 0.0
2018-Jan-11 13:00N 44°19' E 008°30'0 0.0
2018-Jan-11 12:27N 44°19' E 008°30'0 0.0
2018-Jan-11 11:57N 44°19' E 008°30'0 0.0
2018-Jan-11 11:27N 44°19' E 008°30'0 0.0
2018-Jan-11 10:57N 44°19' E 008°30'0 0.0
2018-Jan-11 10:21N 44°19' E 008°30'0 0.0
2018-Jan-11 09:57N 44°19' E 008°30'0 0.0
2018-Jan-11 09:27N 44°19' E 008°30'1 1.9
2018-Jan-11 09:01N 44°19' E 008°31'4 8.2
2018-Jan-11 08:30N 44°15' E 008°34'5 9.1
2018-Jan-11 08:00N 44°12' E 008°38'5 9.2
2018-Jan-11 07:30N 44°08' E 008°41'5 9.1
2018-Jan-11 07:00N 44°04' E 008°45'5 9.3
2018-Jan-11 06:30N 44°00' E 008°48'5 9.3
2018-Jan-11 06:00N 43°56' E 008°52'5 9.2
2018-Jan-11 05:30N 43°52' E 008°55'5 9.3
2018-Jan-11 05:00N 43°49' E 008°59'5 9.4
2018-Jan-11 04:30N 43°45' E 009°02'5 9.4
2018-Jan-11 04:00N 43°41' E 009°06'5 9.6
2018-Jan-11 03:30N 43°37' E 009°10'5 9.8
2018-Jan-11 03:00N 43°33' E 009°13'510.1
2018-Jan-11 02:30N 43°28' E 009°17'5 9.9
2018-Jan-11 02:00N 43°24' E 009°21'510.1
2018-Jan-11 01:30N 43°20' E 009°25'510.0
2018-Jan-11 01:00N 43°16' E 009°29'510.0
2018-Jan-11 00:30N 43°12' E 009°33'270 9.6
2018-Jan-09 20:17N 40°30' E 014°22'310.2
2018-Jan-09 20:00N 40°30' E 014°26'3 0.1
2018-Jan-08 20:40N 40°30' E 014°30'1 3.0
2018-Jan-08 20:24N 40°31' E 014°29'240 8.7
2018-Jan-07 16:48N 38°47' E 009°48'3 8.9
2018-Jan-07 16:29N 38°46' E 009°45'4 8.7
2018-Jan-07 16:00N 38°44' E 009°40'4 8.4
2018-Jan-07 15:30N 38°42' E 009°35'4 8.3
2018-Jan-07 15:00N 38°40' E 009°30'4 8.5
2018-Jan-07 14:30N 38°41' E 009°25'4 8.5
2018-Jan-07 14:00N 38°41' E 009°19'8 8.7
2018-Jan-07 13:06N 38°40' E 009°09'23 9.2
2018-Jan-07 10:36N 38°41' E 008°40'1 9.0
2018-Jan-07 10:28N 38°41' E 008°39'264 9.5
2018-Jan-06 06:33N 39°03' E 003°00'15 9.7
2018-Jan-06 05:02N 39°05' E 002°42'0 9.8
2018-Jan-06 04:59N 39°05' E 002°41'  
2018-Jan-02 18:36N 43°05' E 004°51'7 9.7
2018-Jan-02 17:53N 43°09' E 004°58'4 9.0
2018-Jan-02 17:23N 43°13' E 005°01'410.4
2018-Jan-02 16:59N 43°17' E 004°59'510.2
2018-Jan-02 16:30N 43°22' E 004°57'4 8.6
2018-Jan-02 16:00N 43°25' E 004°53'0 0.9
2018-Jan-02 15:28N 43°26' E 004°53'  
Track history (hours):
 
Tides and Currents Weather Stations Pressure Air Temp Water Temp Dewpoint Dewpoint Depression Visibility Wind Speed Wind Dir Waves Ship Positions

Silves

Last reported at 2018-Jan-12 15:00 UTC. Time now 2018-Jan-18 07:51 UTC.
Position N 43°56' E 008°44'.

Length 90 m; draft 4.3 m.

Type: Cargo ship. MMSI: 255803360.

Date/timePositionNaut miles runAvg speedWind from/ knotsBaromVisibWave heightAir tempDewpointWater temp
2018-Jan-12 15:00N 43°56' E 008°44'2 3.3
2018-Jan-12 14:31N 43°55' E 008°42'1 1.6
2018-Jan-12 14:01N 43°54' E 008°42'3 5.4
2018-Jan-12 13:30N 43°56' E 008°44'3 5.2
2018-Jan-12 13:00N 43°58' E 008°47'3 5.2
2018-Jan-12 12:30N 43°60' E 008°49'3 4.9
2018-Jan-12 12:00N 44°02' E 008°47'3 5.3
2018-Jan-12 11:27N 44°04' E 008°45'2 5.4
2018-Jan-12 11:00N 44°06' E 008°43'3 5.2
2018-Jan-12 10:26N 44°08' E 008°40'2 5.1
2018-Jan-12 10:00N 44°10' E 008°39'3 5.4
2018-Jan-12 09:31N 44°13' E 008°37'3 5.5
2018-Jan-12 09:00N 44°15' E 008°35'3 5.8
2018-Jan-12 08:30N 44°17' E 008°33'2 4.6
2018-Jan-12 08:00N 44°19' E 008°30'0 0.0
2018-Jan-12 07:30N 44°19' E 008°30'0 0.0
2018-Jan-12 07:00N 44°19' E 008°30'0 0.0
2018-Jan-12 06:30N 44°19' E 008°30'0 0.0
2018-Jan-12 06:00N 44°19' E 008°30'0 0.0
2018-Jan-12 05:30N 44°19' E 008°30'0 0.0
2018-Jan-12 05:00N 44°19' E 008°30'0 0.0
2018-Jan-12 04:27N 44°19' E 008°30'0 0.0
2018-Jan-12 04:00N 44°19' E 008°30'0 0.0
2018-Jan-12 03:27N 44°19' E 008°30'0 0.0
2018-Jan-12 02:51N 44°19' E 008°30'0 0.0
2018-Jan-12 02:27N 44°19' E 008°30'0 0.0
2018-Jan-12 01:57N 44°19' E 008°30'0 0.0
2018-Jan-12 01:30N 44°19' E 008°30'0 0.0
2018-Jan-12 00:57N 44°19' E 008°30'0 0.0
2018-Jan-12 00:27N 44°19' E 008°30'0 0.0
2018-Jan-12 00:00N 44°19' E 008°30'0 0.0
2018-Jan-11 23:30N 44°19' E 008°30'0 0.0
2018-Jan-11 23:00N 44°19' E 008°30'0 0.0
2018-Jan-11 22:27N 44°19' E 008°30'0 0.0
2018-Jan-11 21:57N 44°19' E 008°30'0 0.0
2018-Jan-11 21:30N 44°19' E 008°30'0 0.0
2018-Jan-11 20:57N 44°19' E 008°30'0 0.0
2018-Jan-11 20:30N 44°19' E 008°30'0 0.0
2018-Jan-11 20:00N 44°19' E 008°30'0 0.0
2018-Jan-11 19:30N 44°19' E 008°30'0 0.0
2018-Jan-11 19:00N 44°19' E 008°30'0 0.0
2018-Jan-11 18:30N 44°19' E 008°30'0 0.0
2018-Jan-11 18:00N 44°19' E 008°30'0 0.0
2018-Jan-11 17:27N 44°19' E 008°30'0 0.0
2018-Jan-11 16:45N 44°19' E 008°30'0 0.0
2018-Jan-11 16:30N 44°19' E 008°30'0 0.0
2018-Jan-11 16:00N 44°19' E 008°30'0 0.0
2018-Jan-11 15:27N 44°19' E 008°30'0 0.0
2018-Jan-11 15:00N 44°19' E 008°30'0 0.0
2018-Jan-11 14:30N 44°19' E 008°30'0 0.0
2018-Jan-11 13:51N 44°19' E 008°30'0 0.0
2018-Jan-11 13:27N 44°19' E 008°30'0 0.0
2018-Jan-11 13:00N 44°19' E 008°30'0 0.0
2018-Jan-11 12:27N 44°19' E 008°30'0 0.0
2018-Jan-11 11:57N 44°19' E 008°30'0 0.0
2018-Jan-11 11:27N 44°19' E 008°30'0 0.0
2018-Jan-11 10:57N 44°19' E 008°30'0 0.0
2018-Jan-11 10:21N 44°19' E 008°30'0 0.0
2018-Jan-11 09:57N 44°19' E 008°30'0 0.0
2018-Jan-11 09:27N 44°19' E 008°30'1 1.9
2018-Jan-11 09:01N 44°19' E 008°31'4 8.2
2018-Jan-11 08:30N 44°15' E 008°34'5 9.1
2018-Jan-11 08:00N 44°12' E 008°38'5 9.2
2018-Jan-11 07:30N 44°08' E 008°41'5 9.1
2018-Jan-11 07:00N 44°04' E 008°45'5 9.3
2018-Jan-11 06:30N 44°00' E 008°48'5 9.3
2018-Jan-11 06:00N 43°56' E 008°52'5 9.2
2018-Jan-11 05:30N 43°52' E 008°55'5 9.3
2018-Jan-11 05:00N 43°49' E 008°59'5 9.4
2018-Jan-11 04:30N 43°45' E 009°02'5 9.4
2018-Jan-11 04:00N 43°41' E 009°06'5 9.6
2018-Jan-11 03:30N 43°37' E 009°10'5 9.8
2018-Jan-11 03:00N 43°33' E 009°13'510.1
2018-Jan-11 02:30N 43°28' E 009°17'5 9.9
2018-Jan-11 02:00N 43°24' E 009°21'510.1
2018-Jan-11 01:30N 43°20' E 009°25'510.0
2018-Jan-11 01:00N 43°16' E 009°29'510.0
2018-Jan-11 00:30N 43°12' E 009°33'270 9.6
2018-Jan-09 20:17N 40°30' E 014°22'310.2
2018-Jan-09 20:00N 40°30' E 014°26'3 0.1
2018-Jan-08 20:40N 40°30' E 014°30'1 3.0
2018-Jan-08 20:24N 40°31' E 014°29'240 8.7
2018-Jan-07 16:48N 38°47' E 009°48'3 8.9
2018-Jan-07 16:29N 38°46' E 009°45'4 8.7
2018-Jan-07 16:00N 38°44' E 009°40'4 8.4
2018-Jan-07 15:30N 38°42' E 009°35'4 8.3
2018-Jan-07 15:00N 38°40' E 009°30'4 8.5
2018-Jan-07 14:30N 38°41' E 009°25'4 8.5
2018-Jan-07 14:00N 38°41' E 009°19'8 8.7
2018-Jan-07 13:06N 38°40' E 009°09'23 9.2
2018-Jan-07 10:36N 38°41' E 008°40'1 9.0
2018-Jan-07 10:28N 38°41' E 008°39'264 9.5
2018-Jan-06 06:33N 39°03' E 003°00'15 9.7
2018-Jan-06 05:02N 39°05' E 002°42'0 9.8
2018-Jan-06 04:59N 39°05' E 002°41'  
2018-Jan-02 18:36N 43°05' E 004°51'7 9.7
2018-Jan-02 17:53N 43°09' E 004°58'4 9.0
2018-Jan-02 17:23N 43°13' E 005°01'410.4
2018-Jan-02 16:59N 43°17' E 004°59'510.2
2018-Jan-02 16:30N 43°22' E 004°57'4 8.6
2018-Jan-02 16:00N 43°25' E 004°53'0 0.9
2018-Jan-02 15:28N 43°26' E 004°53'  

Dump ship's entire track history